Tiempo atmosférico en la estación meteorológica de Benabarre, Huesca (765 m.)

Fecha
DESCASC
Temp. máxima en grados centígrados (hora)
DESCASC
Temp. mínima en grados centígrados (hora)
DESCASC
Temp. media en grados centígrados
DESCASC
Racha de viento máxima en m/sg (hora)
DESCASC
Velocidad máxima media en intervalos de 10 minutos(hora)
DESCASC
Precipitaciones diarias en mm
DESCASC
Precipitaciones de 00:00 a 06:00 en mm
DESCASC
Precipitaciones de 06:00 a 12:00 en mm
DESCASC
Precipitaciones de 12:00 a 18:00 en mm
DESCASC
Precipitaciones de 18:00 a 24:00 en mm
DESCASC
23-11-2017 17.7 (13:00) 2.5 (02:20) 10.1 5.56 (15:30) 3.06 (15:40) 0 0 0 0 0
22-11-2017 19.3 (14:20) 2.2 (07:20) 10.7 4.44 (17:20) 3.33 (06:00) 0 0 0 0 0
21-11-2017 16.3 (14:50) 2.2 (08:00) 9.2 3.89 (18:20) 3.06 (20:00) 0 0 0 0 0
20-11-2017 15.1 (15:20) 1.2 (07:50) 8.2 4.17 (13:30) 3.06 (08:20) 0 0 0 0 0
19-11-2017 13.8 (15:10) 0.9 (00:00) 7.4 5 (13:00) 3.61 (14:00) 0 0 0 0 0
18-11-2017 17.5 (14:00) 2.2 (00:00) 9.9 4.72 (14:20) 3.61 (17:50) 0 0 0 0 0
17-11-2017 15.9 (14:10) 1.1 (00:00) 8.5 5 (16:10) 3.89 (12:10) 0 0 0 0 0
16-11-2017 15.8 (14:30) -0.2 (00:00) 7.8 5 (13:10) 3.06 (18:10) 0 0 0 0 0
15-11-2017 12.8 (14:30) -1.3 (-00:0) 5.8 5 (13:40) 3.61 (13:40) 0 0 0 0 0
14-11-2017 11.6 (14:10) -1.2 (-00:0) 5.2 5.56 (16:10) 3.61 (16:10) 0 0 0 0 0
13-11-2017 12.7 (13:50) -0.3 (00:00) 6.2 11.94 (12:00) 7.78 (11:20) 0 0 0 0 0
12-11-2017 16.9 (15:30) 2.6 (00:00) 9.7 8.33 (16:50) 6.11 (18:40) 0 0 0 0 0
11-11-2017 13.8 (15:50) 4.6 (00:00) 9.2 6.11 (05:20) 4.44 (05:20) 0 0 0 0 0
10-11-2017 12.7 (16:30) 0 (00:00) 6.3 6.39 (14:10) 5 (14:10) 0 0 0 0 0
09-11-2017 12.8 (15:10) 0.4 (00:00) 6.6 8.33 (15:00) 5.56 (15:00) 0 0 0 0 0
08-11-2017 11.9 (15:10) -0.6 (-00:0) 5.6 6.11 (20:20) 4.72 (19:30) 0 0 0 0 0
07-11-2017 12.8 (14:50) -1.7 (-00:0) 5.6 7.78 (12:30) 5 (12:30) 0 0 0 0 0
06-11-2017 12.2 (14:00) 0.2 (00:00) 6.2 10.28 (19:20) 6.67 (16:10) 0 0 0 0 0
05-11-2017 15.5 (15:30) 4.6 (00:00) 10 10.56 (16:10) 7.22 (17:10) 0.2 0.2 0 0 0
04-11-2017 15.5 (14:10) 8.2 (00:00) 11.8 6.94 (21:50) 4.17 (15:40) 7.4 0 2.8 3.6 1
03-11-2017 20.6 (16:00) 8.2 (00:00) 14.4 6.39 (05:00) 4.72 (05:00) 0 0 0 0 0
02-11-2017 17.9 (13:20) 7.6 (06:40) 12.7 4.44 (11:50) 2.78 (11:50) 0 0 0 0 0
01-11-2017 18.2 (14:10) 5.3 (00:00) 11.8 5.56 (11:20) 3.06 (11:20) 0 0 0 0 0
31-10-2017 16 (13:50) 6 (00:00) 11 5 (13:10) 2.5 (10:50) 0 0 0 0 0
30-10-2017 19.6 (15:10) 4.2 (00:00) 11.9 5.28 (13:10) 2.78 (13:10) 0 0 0 0 0
29-10-2017 17.6 (14:10) 4.3 (00:00) 11 6.94 (16:40) 5 (16:30) 0 0 0 0 0
28-10-2017 19.4 (16:00) 7.6 (00:00) 13.5 6.11 (14:50) 3.89 (14:50) 0 0 0 0 0
27-10-2017 23.1 (16:50) 8.8 (00:00) 16 6.11 (23:00) 4.72 (23:00) 0 0 0 0 0
26-10-2017 24.6 (15:20) 10.4 (00:00) 17.5 5.83 (17:30) 3.89 (17:20) 0 0 0 0 0
25-10-2017 26.8 (15:40) 9.4 (00:00) 18.1 3.61 (06:00) 3.06 (06:00) 0 0 0 0 0

Gráficas

Temp. máximas Temp. mínimas Temp. medias Precipitaciones Rachas de viento máximas Velocidades máximas media en intervalos de 10 minutos

Datos horarios

Fecha y hora oficial Temperatura (ºC) Velocidad del viento (km/h) Dirección del viento Racha (km/h) Dirección de racha Precipitación (mm) Presión (hPa) Tendencia (hPa) Humedad (%)
2017-11-23 23:00:00 7.2 6 Norte 13 Norte 0 -- -- 67
2017-11-23 22:00:00 6.5 10 Norte 12 Norte 0 -- -- 69
2017-11-23 21:00:00 7.4 6 Norte 11 Norte 0 -- -- 64
2017-11-23 20:00:00 8.9 7 Norte 10 Norte 0 -- -- 59
2017-11-23 19:00:00 8.5 7 Norte 12 Noroeste 0 -- -- 57
2017-11-23 18:00:00 12.1 8 Oeste 13 Noroeste 0 -- -- 46
2017-11-23 17:00:00 13.6 9 Noroeste 14 Oeste 0 -- -- 43
2017-11-23 16:00:00 15.2 9 Oeste 20 Oeste 0 -- -- 38
2017-11-23 15:00:00 15.9 7 Noroeste 15 Oeste 0 -- -- 35
2017-11-23 14:00:00 16.5 9 Oeste 14 Oeste 0 -- -- 35
2017-11-23 13:00:00 17.7 3 Sudoeste 8 Este 0 -- -- 34
2017-11-23 12:00:00 13.9 4 Este 10 Este 0 -- -- 42
2017-11-23 11:00:00 12.1 3 Sudeste 7 Este 0 -- -- 47
2017-11-23 10:00:00 8.7 0 Calma 6 Este 0 -- -- 51
2017-11-23 09:00:00 5.6 3 Oeste 8 Norte 0 -- -- 67
2017-11-23 08:00:00 3.8 2 Nordeste 11 Noroeste 0 -- -- 69
2017-11-23 07:00:00 3.2 6 Noroeste 12 Norte 0 -- -- 73
2017-11-23 06:00:00 3.4 7 Noroeste 12 Norte 0 -- -- 73
2017-11-23 05:00:00 3 5 Norte 10 Norte 0 -- -- 74
2017-11-23 04:00:00 3.3 5 Norte 11 Norte 0 -- -- 71
2017-11-23 03:00:00 2.9 6 Norte 12 Norte 0 -- -- 69
2017-11-23 02:00:00 2.9 6 Norte 12 Norte 0 -- -- 68
2017-11-23 01:00:00 3.1 9 Norte 13 Norte 0 -- -- 67
2017-11-23 00:00:00 3.1 7 Norte 12 Norte 0 -- -- 68
2017-11-22 23:00:00 3.7 8 Norte 15 Norte 0 -- -- 68
2017-11-22 22:00:00 4.1 8 Norte 13 Norte 0 -- -- 69
2017-11-22 21:00:00 4.7 10 Norte 14 Norte 0 -- -- 72
2017-11-22 20:00:00 5.4 5 Norte 13 Norte 0 -- -- 72
2017-11-22 19:00:00 6.2 6 Nordeste 12 Norte 0 -- -- 69
2017-11-22 18:00:00 8.3 8 Norte 16 Noroeste 0 -- -- 62
2017-11-22 17:00:00 15.4 4 Oeste 8 Oeste 0 -- -- 42
2017-11-22 16:00:00 16.6 6 Oeste 13 Oeste 0 -- -- 38
2017-11-22 15:00:00 17.9 5 Oeste 11 Sudeste 0 -- -- 34
2017-11-22 14:00:00 18.3 4 Este 10 Este 0 -- -- 31
2017-11-22 13:00:00 16.5 5 Sudeste 13 Este 0 -- -- 35
2017-11-22 12:00:00 13.9 7 Sudeste 12 Sudeste 0 -- -- 42
2017-11-22 11:00:00 10.9 5 Sudeste 9 Sudeste 0 -- -- 52
2017-11-22 10:00:00 8.8 5 Sudeste 8 Este 0 -- -- 55
2017-11-22 09:00:00 4.8 4 Norte 12 Norte 0 -- -- 67
2017-11-22 08:00:00 3.4 6 Noroeste 14 Norte 0 -- -- 70
2017-11-22 07:00:00 2.9 9 Norte 13 Norte 0 -- -- 73
2017-11-22 06:00:00 2.3 12 Norte 14 Norte 0 -- -- 78
2017-11-22 05:00:00 3.2 6 Nordeste 13 Norte 0 -- -- 74
2017-11-22 04:00:00 3.3 9 Norte 13 Norte 0 -- -- 75
2017-11-22 03:00:00 3.7 8 Norte 10 Norte 0 -- -- 75
2017-11-22 02:00:00 4.5 2 Norte 13 Norte 0 -- -- 73
2017-11-22 01:00:00 3.8 9 Norte 12 Norte 0 -- -- 77
2017-11-22 00:00:00 4.3 3 Noroeste 12 Norte 0 -- -- 76
2017-11-21 23:00:00 4.7 6 Norte 14 Norte 0 -- -- 78
2017-11-21 22:00:00 4.3 10 Norte 12 Norte 0 -- -- 82
2017-11-21 21:00:00 5.4 5 Norte 13 Norte 0 -- -- 77
2017-11-21 20:00:00 5.1 11 Norte 14 Norte 0 -- -- 77
2017-11-21 19:00:00 6.4 8 Norte 14 Norte 0 -- -- 72
2017-11-21 18:00:00 8 9 Norte 12 Norte 0 -- -- 67
2017-11-21 17:00:00 13.8 7 Oeste 13 Oeste 0 -- -- 49
2017-11-21 16:00:00 15.4 10 Noroeste 13 Noroeste 0 -- -- 44
2017-11-21 15:00:00 16.1 8 Oeste 13 Noroeste 0 -- -- 43
2017-11-21 14:00:00 15.9 6 Oeste 12 Oeste 0 -- -- 42
2017-11-21 13:00:00 14.6 6 Noroeste 11 Noroeste 0 -- -- 45
2017-11-21 12:00:00 13 7 Oeste 12 Sudoeste 0 -- -- 49
2017-11-21 11:00:00 10.3 8 Noroeste 12 Noroeste 0 -- -- 56
2017-11-21 10:00:00 8.4 6 Noroeste 10 Noroeste 0 -- -- 69
2017-11-21 09:00:00 3.8 8 Norte 13 Noroeste 0 -- -- 82
2017-11-21 08:00:00 2.2 10 Norte 13 Noroeste 0 -- -- 86
2017-11-21 07:00:00 2.8 4 Norte 14 Norte 0 -- -- 85
2017-11-21 06:00:00 2.5 11 Norte 14 Norte 0 -- -- 86
2017-11-21 05:00:00 2.5 9 Norte 12 Norte 0 -- -- 86
2017-11-21 04:00:00 2.8 9 Norte 13 Norte 0 -- -- 85
2017-11-21 03:00:00 2.4 8 Norte 13 Norte 0 -- -- 88
2017-11-21 02:00:00 2.4 8 Norte 12 Norte 0 -- -- 88
2017-11-21 01:00:00 2.9 8 Norte 12 Norte 0 -- -- 87
2017-11-21 00:00:00 3.2 10 Norte 13 Norte 0 -- -- 87
2017-11-20 23:00:00 3.6 5 Norte 11 Norte 0 -- -- 86
2017-11-20 22:00:00 3.9 7 Norte 12 Norte 0 -- -- 85
2017-11-20 21:00:00 4.6 9 Norte 12 Norte 0 -- -- 83
2017-11-20 20:00:00 5 8 Norte 12 Norte 0 -- -- 80
2017-11-20 19:00:00 5.6 7 Norte 11 Noroeste 0 -- -- 77
2017-11-20 18:00:00 8.6 6 Norte 10 Oeste 0 -- -- 66
2017-11-20 17:00:00 12.6 8 Oeste 14 Noroeste 0 -- -- 52
2017-11-20 16:00:00 13.8 9 Noroeste 14 Noroeste 0 -- -- 48
2017-11-20 15:00:00 14.7 8 Noroeste 13 Noroeste 0 -- -- 46
2017-11-20 14:00:00 14.8 8 Oeste 15 Oeste 0 -- -- 41
2017-11-20 13:00:00 13.4 8 Oeste 14 Noroeste 0 -- -- 45
2017-11-20 12:00:00 12.7 8 Oeste 13 Noroeste 0 -- -- 43
2017-11-20 11:00:00 11.3 6 Noroeste 9 Noroeste 0 -- -- 48
2017-11-20 10:00:00 9.3 5 Oeste 9 Noroeste 0 -- -- 67
2017-11-20 09:00:00 4.1 8 Norte 13 Norte 0 -- -- 75
2017-11-20 08:00:00 1.2 9 Norte 12 Norte 0 -- -- 82
2017-11-20 07:00:00 1.7 9 Norte 12 Norte 0 -- -- 79
2017-11-20 06:00:00 1.6 8 Norte 10 Norte 0 -- -- 82
2017-11-20 05:00:00 1.6 8 Norte 10 Norte 0 -- -- 85
2017-11-20 04:00:00 1.6 4 Norte 12 Norte 0 -- -- 83
2017-11-20 03:00:00 1.3 9 Norte 11 Norte 0 -- -- 84
2017-11-20 02:00:00 2.3 5 Norte 12 Norte 0 -- -- 80
2017-11-20 01:00:00 2.3 6 Norte 12 Norte 0 -- -- 83
2017-11-20 00:00:00 1.9 9 Norte 12 Norte 0 -- -- 85
2017-11-19 23:00:00 3 3 Norte 10 Norte 0 -- -- 83
2017-11-19 22:00:00 3.6 9 Norte 12 Norte 0 -- -- 82
2017-11-19 21:00:00 5.6 6 Noroeste 10 Norte 0 -- -- 76
2017-11-19 20:00:00 5.5 8 Noroeste 14 Noroeste 0 -- -- 79
2017-11-19 19:00:00 7.3 5 Noroeste 17 Noroeste 0 -- -- 75
2017-11-19 18:00:00 8.5 10 Noroeste 17 Noroeste 0 -- -- 71
2017-11-19 17:00:00 11.4 11 Noroeste 15 Noroeste 0 -- -- 59
2017-11-19 16:00:00 13.4 9 Oeste 14 Oeste 0 -- -- 52
2017-11-19 15:00:00 13.7 9 Oeste 16 Oeste 0 -- -- 52
2017-11-19 14:00:00 12.1 13 Noroeste 17 Noroeste 0 -- -- 53
2017-11-19 13:00:00 11.4 12 Noroeste 18 Noroeste 0 -- -- 53
2017-11-19 12:00:00 10.7 12 Noroeste 16 Noroeste 0 -- -- 58
2017-11-19 11:00:00 10 3 Sudoeste 8 Sudoeste 0 -- -- 60
2017-11-19 10:00:00 6.8 0 Calma 8 Este 0 -- -- 73
2017-11-19 09:00:00 2.8 3 Norte 10 Norte 0 -- -- 85
2017-11-19 08:00:00 1.1 3 Norte 10 Norte 0 -- -- 89
2017-11-19 07:00:00 1.1 9 Norte 12 Norte 0 -- -- 89
2017-11-19 06:00:00 1.2 8 Norte 11 Norte 0 -- -- 90
2017-11-19 05:00:00 1.2 5 Norte 12 Noroeste 0 -- -- 88
2017-11-19 04:00:00 1.2 9 Norte 12 Norte 0 -- -- 89
2017-11-19 03:00:00 1.6 8 Norte 12 Norte 0 -- -- 90
2017-11-19 02:00:00 2 8 Norte 12 Norte 0 -- -- 88
2017-11-19 01:00:00 1.9 10 Norte 12 Norte 0 -- -- 90
2017-11-19 00:00:00 3.2 7 Norte 13 Norte 0 -- -- 88
2017-11-18 23:00:00 3.5 6 Norte 11 Norte 0 -- -- 85
2017-11-18 22:00:00 3.7 7 Norte 14 Norte 0 -- -- 84
2017-11-18 21:00:00 3.6 8 Norte 11 Norte 0 -- -- 83
2017-11-18 20:00:00 4.7 6 Norte 12 Noroeste 0 -- -- 78
2017-11-18 19:00:00 5.7 8 Norte 11 Norte 0 -- -- 74
2017-11-18 18:00:00 8.5 10 Noroeste 15 Noroeste 0 -- -- 65
2017-11-18 17:00:00 12 6 Oeste 14 Oeste 0 -- -- 56
2017-11-18 16:00:00 12.9 10 Noroeste 15 Noroeste 0 -- -- 55
2017-11-18 15:00:00 13.6 10 Noroeste 17 Oeste 0 -- -- 51
2017-11-18 14:00:00 17.5 6 Sudeste 14 Sudeste 0 -- -- 43
2017-11-18 13:00:00 16.2 4 Sudoeste 10 Sudeste 0 -- -- 41
2017-11-18 12:00:00 14.2 3 Sur 7 Sur 0 -- -- 45
2017-11-18 11:00:00 11.3 5 Sudeste 8 Este 0 -- -- 52
2017-11-18 10:00:00 9.6 2 Sudeste 5 Sudeste 0 -- -- 59
2017-11-18 09:00:00 6.8 0 Calma 13 Norte 0 -- -- 66
2017-11-18 08:00:00 3.7 9 Norte 12 Norte 0 -- -- 72
2017-11-18 07:00:00 3.8 4 Norte 13 Norte 0 -- -- 72
2017-11-18 06:00:00 3.9 8 Norte 12 Norte 0 -- -- 72
2017-11-18 05:00:00 3.6 8 Norte 12 Norte 0 -- -- 75
2017-11-18 04:00:00 4.6 7 Noroeste 11 Norte 0 -- -- 71
2017-11-18 03:00:00 5.5 3 Noroeste 12 Norte 0 -- -- 69
2017-11-18 02:00:00 3.8 2 Norte 8 Norte 0 -- -- 76
2017-11-18 01:00:00 5.2 4 Nordeste 12 Norte 0 -- -- 71
2017-11-18 00:00:00 5.7 9 Norte 12 Norte 0 -- -- 68
2017-11-17 23:00:00 5.2 10 Norte 13 Norte 0 -- -- 69
2017-11-17 22:00:00 5.7 9 Norte 13 Norte 0 -- -- 65
2017-11-17 21:00:00 6.7 6 Norte 13 Noroeste 0 -- -- 65
2017-11-17 20:00:00 8 10 Noroeste 17 Noroeste 0 -- -- 62
2017-11-17 19:00:00 7.4 10 Norte 14 Noroeste 0 -- -- 61
2017-11-17 18:00:00 10.2 7 Oeste 15 Oeste 0 -- -- 55
2017-11-17 17:00:00 13.3 9 Oeste 18 Oeste 0 -- -- 44
2017-11-17 16:00:00 14 13 Oeste 18 Oeste 0 -- -- 43
2017-11-17 15:00:00 15.6 9 Noroeste 14 Noroeste 0 -- -- 41
2017-11-17 14:00:00 15.7 8 Oeste 16 Oeste 0 -- -- 38
2017-11-17 13:00:00 13.9 8 Oeste 18 Noroeste 0 -- -- 40
2017-11-17 12:00:00 12 13 Noroeste 17 Oeste 0 -- -- 39
2017-11-17 11:00:00 10.2 10 Oeste 18 Oeste 0 -- -- 47
2017-11-17 10:00:00 9 4 Noroeste 17 Noroeste 0 -- -- 49
2017-11-17 09:00:00 5.1 6 Noroeste 12 Norte 0 -- -- 64
2017-11-17 08:00:00 2.5 8 Noroeste 17 Noroeste 0 -- -- 71
2017-11-17 07:00:00 1.4 12 Norte 14 Norte 0 -- -- 73
2017-11-17 06:00:00 1.2 10 Norte 12 Norte 0 -- -- 77
2017-11-17 05:00:00 1.8 9 Norte 12 Norte 0 -- -- 76
2017-11-17 04:00:00 1.6 8 Norte 11 Norte 0 -- -- 80
2017-11-17 03:00:00 1.9 4 Norte 12 Norte 0 -- -- 79
2017-11-17 02:00:00 1.6 4 Norte 10 Norte 0 -- -- 79
2017-11-17 01:00:00 2.5 5 Norte 13 Norte 0 -- -- 78
2017-11-17 00:00:00 2.6 10 Norte 13 Norte 0 -- -- 77
2017-11-16 23:00:00 2.7 4 Norte 13 Norte 0 -- -- 75
2017-11-16 22:00:00 3.3 8 Norte 15 Norte 0 -- -- 73
2017-11-16 21:00:00 3.9 6 Norte 15 Norte 0 -- -- 70
2017-11-16 20:00:00 3.8 6 Norte 14 Norte 0 -- -- 71
2017-11-16 19:00:00 5.5 9 Norte 15 Noroeste 0 -- -- 66
2017-11-16 18:00:00 8.6 8 Oeste 13 Noroeste 0 -- -- 57
2017-11-16 17:00:00 11 9 Noroeste 14 Noroeste 0 -- -- 50
2017-11-16 16:00:00 13.4 8 Oeste 16 Oeste 0 -- -- 44
2017-11-16 15:00:00 13.4 10 Oeste 16 Oeste 0 -- -- 42
2017-11-16 14:00:00 15.1 6 Sur 18 Sudeste 0 -- -- 36
2017-11-16 13:00:00 13.4 10 Este 17 Este 0 -- -- 34
2017-11-16 12:00:00 11.6 9 Sur 13 Sudeste 0 -- -- 37
2017-11-16 11:00:00 10.1 4 Sudeste 8 Sudeste 0 -- -- 44
2017-11-16 10:00:00 7.4 2 Sudeste 6 Este 0 -- -- 56
2017-11-16 09:00:00 2.8 4 Noroeste 10 Norte 0 -- -- 63
2017-11-16 08:00:00 0.3 4 Norte 10 Norte 0 -- -- 72
2017-11-16 07:00:00 0.3 5 Norte 10 Norte 0 -- -- 71
2017-11-16 06:00:00 0.2 6 Norte 11 Norte 0 -- -- 73
2017-11-16 05:00:00 0.8 7 Norte 12 Norte 0 -- -- 72
2017-11-16 04:00:00 0.9 4 Norte 12 Norte 0 -- -- 75
2017-11-16 03:00:00 0.9 10 Norte 15 Norte 0 -- -- 77
2017-11-16 02:00:00 0.9 9 Norte 12 Norte 0 -- -- 77
2017-11-16 01:00:00 1.7 2 Norte 12 Noroeste 0 -- -- 77
2017-11-16 00:00:00 2.2 10 Norte 14 Norte 0 -- -- 77
2017-11-15 23:00:00 2.2 6 Norte 10 Norte 0 -- -- 76
2017-11-15 22:00:00 2.5 8 Norte 11 Norte 0 -- -- 75
2017-11-15 21:00:00 3.3 5 Norte 10 Norte 0 -- -- 74
2017-11-15 20:00:00 4.6 5 Norte 9 Norte 0 -- -- 70
2017-11-15 19:00:00 5.5 5 Este 9 Norte 0 -- -- 63
2017-11-15 18:00:00 7 6 Noroeste 16 Noroeste 0 -- -- 58
2017-11-15 17:00:00 8.3 11 Noroeste 16 Noroeste 0 -- -- 55
2017-11-15 16:00:00 11.5 6 Noroeste 12 Oeste 0 -- -- 46
2017-11-15 15:00:00 12.4 9 Oeste 13 Noroeste 0 -- -- 42
2017-11-15 14:00:00 11.7 8 Oeste 18 Noroeste 0 -- -- 38
2017-11-15 13:00:00 10.6 11 Noroeste 15 Noroeste 0 -- -- 39
2017-11-15 12:00:00 9.1 10 Noroeste 14 Noroeste 0 -- -- 41
2017-11-15 11:00:00 8.6 5 Noroeste 10 Sudoeste 0 -- -- 45
2017-11-15 10:00:00 5.9 3 Oeste 9 Oeste 0 -- -- 51
2017-11-15 09:00:00 4.5 0 Calma 11 Norte 0 -- -- 61
2017-11-15 08:00:00 0.4 3 Norte 15 Norte 0 -- -- 73
2017-11-15 07:00:00 -0.9 8 Norte 11 Norte 0 -- -- 79
2017-11-15 06:00:00 -0.2 7 Norte 13 Norte 0 -- -- 75
2017-11-15 05:00:00 -1 9 Norte 12 Norte 0 -- -- 77
2017-11-15 04:00:00 -0.7 9 Norte 12 Norte 0 -- -- 74
2017-11-15 03:00:00 -0.4 8 Norte 13 Norte 0 -- -- 72
2017-11-15 02:00:00 -1 9 Norte 12 Norte 0 -- -- 75
2017-11-15 01:00:00 -0.4 8 Norte 13 Norte 0 -- -- 71
2017-11-15 00:00:00 -0.3 8 Norte 14 Norte 0 -- -- 72
2017-11-14 23:00:00 0.3 10 Norte 17 Norte 0 -- -- 68
2017-11-14 22:00:00 0.5 4 Norte 12 Noroeste 0 -- -- 65
2017-11-14 21:00:00 1.3 9 Norte 12 Norte 0 -- -- 62
2017-11-14 20:00:00 1.6 6 Norte 13 Norte 0 -- -- 57
2017-11-14 19:00:00 3 8 Norte 12 Norte 0 -- -- 53
2017-11-14 18:00:00 5.3 8 Norte 15 Oeste 0 -- -- 49
2017-11-14 17:00:00 9.8 10 Noroeste 20 Noroeste 0 -- -- 36
2017-11-14 16:00:00 10.9 12 Noroeste 18 Noroeste 0 -- -- 31
2017-11-14 15:00:00 11.1 10 Noroeste 18 Oeste 0 -- -- 32
2017-11-14 14:00:00 11.3 10 Noroeste 18 Oeste 0 -- -- 31
2017-11-14 13:00:00 10.5 8 Noroeste 18 Noroeste 0 -- -- 31
2017-11-14 12:00:00 10.4 5 Oeste 10 Oeste 0 -- -- 29
2017-11-14 11:00:00 8.6 4 Sur 12 Este 0 -- -- 33
2017-11-14 10:00:00 6 3 Sudeste 6 Sudeste 0 -- -- 40
2017-11-14 09:00:00 3.8 4 Sudoeste 8 Sudoeste 0 -- -- 36
2017-11-14 08:00:00 0.1 4 Norte 11 Norte 0 -- -- 48
2017-11-14 07:00:00 -0.2 3 Este 13 Norte 0 -- -- 50
2017-11-14 06:00:00 -1.2 10 Norte 13 Norte 0 -- -- 56
2017-11-14 05:00:00 -0.1 6 Norte 12 Norte 0 -- -- 49
2017-11-14 04:00:00 -0.1 5 Nordeste 12 Norte 0 -- -- 50
2017-11-14 03:00:00 -0.8 4 Norte 12 Norte 0 -- -- 54
2017-11-14 02:00:00 -0.5 9 Norte 12 Norte 0 -- -- 51
2017-11-14 01:00:00 1.7 3 Sudoeste 14 Norte 0 -- -- 42
2017-11-14 00:00:00 0 10 Norte 17 Norte 0 -- -- 46
2017-11-13 23:00:00 -0.2 12 Norte 15 Nordeste 0 -- -- 46
2017-11-13 22:00:00 -0.3 12 Norte 18 Nordeste 0 -- -- 47
2017-11-13 21:00:00 0.4 13 Nordeste 18 Norte 0 -- -- 45
2017-11-13 20:00:00 1.6 12 Norte 18 Norte 0 -- -- 38
2017-11-13 19:00:00 3.7 8 Norte 15 Este 0 -- -- 35
2017-11-13 18:00:00 6.9 5 Sudeste 15 Este 0 -- -- 27
2017-11-13 17:00:00 10.2 12 Este 29 Este 0 -- -- 23
2017-11-13 16:00:00 11 20 Este 33 Este 0 -- -- 21
2017-11-13 15:00:00 11.6 18 Este 32 Este 0 -- -- 19
2017-11-13 14:00:00 12.4 15 Norte 39 Norte 0 -- -- 16
2017-11-13 13:00:00 10.9 27 Norte 41 Norte 0 -- -- 18
2017-11-13 12:00:00 10.5 23 Norte 43 Norte 0 -- -- 21
2017-11-13 11:00:00 10 22 Norte 36 Norte 0 -- -- 20
2017-11-13 10:00:00 9.2 9 Norte 27 Norte 0 -- -- 24
2017-11-13 09:00:00 8.3 5 Norte 22 Norte 0 -- -- 31
2017-11-13 08:00:00 5.3 9 Este 11 Sudeste 0 -- -- 42
2017-11-13 07:00:00 4.7 7 Noroeste 23 Norte 0 -- -- 52
2017-11-13 06:00:00 2.6 10 Norte 17 Norte 0 -- -- 75
2017-11-13 05:00:00 3.6 8 Noroeste 17 Oeste 0 -- -- 73
2017-11-13 04:00:00 6.5 12 Noroeste 40 Oeste 0 -- -- 63
2017-11-13 03:00:00 8.3 23 Noroeste 34 Noroeste 0 -- -- 58
2017-11-13 02:00:00 8.7 14 Oeste 23 Noroeste 0 -- -- 66
2017-11-13 01:00:00 9.5 13 Noroeste 32 Noroeste 0 -- -- 70
2017-11-13 00:00:00 8.7 19 Noroeste 27 Noroeste 0 -- -- 77
2017-11-12 23:00:00 7.5 6 Oeste 15 Noroeste 0 -- -- 84
2017-11-12 22:00:00 8.5 8 Oeste 25 Noroeste 0 -- -- 83
2017-11-12 21:00:00 9 19 Noroeste 28 Noroeste 0 -- -- 79
2017-11-12 20:00:00 10.4 16 Noroeste 25 Oeste 0 -- -- 70
2017-11-12 19:00:00 12.2 11 Oeste 28 Noroeste 0 -- -- 62
2017-11-12 18:00:00 13.2 13 Noroeste 28 Oeste 0 -- -- 61
2017-11-12 17:00:00 16.4 16 Oeste 30 Oeste 0 -- -- 52
2017-11-12 16:00:00 16.8 13 Oeste 22 Oeste 0 -- -- 52
2017-11-12 15:00:00 16.8 10 Noroeste 22 Oeste 0 -- -- 51
2017-11-12 14:00:00 15.6 11 Noroeste 20 Oeste 0 -- -- 53
2017-11-12 13:00:00 13.9 10 Oeste 17 Oeste 0 -- -- 56
2017-11-12 12:00:00 12 12 Oeste 17 Oeste 0 -- -- 65
2017-11-12 11:00:00 11 9 Oeste 14 Oeste 0 -- -- 69
2017-11-12 10:00:00 9.2 4 Sudoeste 8 Sudeste 0 -- -- 77
2017-11-12 09:00:00 5.5 5 Norte 12 Norte 0 -- -- 89
2017-11-12 08:00:00 2.9 3 Nordeste 11 Norte 0 -- -- 94
2017-11-12 07:00:00 3.3 8 Norte 11 Norte 0 -- -- 92
2017-11-12 06:00:00 4.2 6 Noroeste 11 Norte 0 -- -- 89
2017-11-12 05:00:00 4.5 4 Noroeste 11 Norte 0 -- -- 88
2017-11-12 04:00:00 4.2 9 Norte 12 Norte 0 -- -- 90
2017-11-12 03:00:00 4.3 8 Norte 10 Norte 0 -- -- 89
2017-11-12 02:00:00 5.2 8 Norte 13 Norte 0 -- -- 88
2017-11-12 01:00:00 4.8 6 Norte 10 Norte 0 -- -- 88
2017-11-12 00:00:00 5.5 8 Norte 12 Norte 0 -- -- 86
2017-11-11 23:00:00 5.4 7 Norte 10 Norte 0 -- -- 88
2017-11-11 22:00:00 6.6 8 Norte 13 Norte 0 -- -- 84
2017-11-11 21:00:00 7.7 3 Norte 9 Norte 0 -- -- 82
2017-11-11 20:00:00 8.6 4 Norte 9 Norte 0 -- -- 78
2017-11-11 19:00:00 9.6 2 Nordeste 7 Norte 0 -- -- 73
2017-11-11 18:00:00 11.1 3 Sudeste 10 Noroeste 0 -- -- 67
2017-11-11 17:00:00 12.7 4 Sudeste 12 Oeste 0 -- -- 61
2017-11-11 16:00:00 13.8 10 Oeste 14 Oeste 0 -- -- 56
2017-11-11 15:00:00 12.8 7 Oeste 14 Oeste 0 -- -- 60
2017-11-11 14:00:00 11.6 6 Noroeste 10 Noroeste 0 -- -- 59
2017-11-11 13:00:00 10.8 6 Noroeste 10 Noroeste 0 -- -- 62
2017-11-11 12:00:00 10.4 4 Norte 17 Noroeste 0 -- -- 60
2017-11-11 11:00:00 9.7 14 Noroeste 18 Noroeste 0 -- -- 61
2017-11-11 10:00:00 8.8 6 Noroeste 14 Oeste 0 -- -- 66
2017-11-11 09:00:00 8.8 10 Noroeste 12 Oeste 0 -- -- 63
2017-11-11 08:00:00 6.7 7 Norte 12 Norte 0 -- -- 73
2017-11-11 07:00:00 6.4 8 Noroeste 13 Noroeste 0 -- -- 73
2017-11-11 06:00:00 7.2 2 Sudeste 22 Oeste 0 -- -- 69
2017-11-11 05:00:00 8.3 13 Oeste 19 Oeste 0 -- -- 65
2017-11-11 04:00:00 6.9 11 Norte 19 Norte 0 -- -- 69
2017-11-11 03:00:00 7.4 9 Noroeste 19 Noroeste 0 -- -- 69
2017-11-11 02:00:00 7.2 10 Noroeste 17 Oeste 0 -- -- 70
2017-11-11 01:00:00 5.8 4 Noroeste 14 Norte 0 -- -- 76
2017-11-11 00:00:00 5.4 9 Norte 18 Noroeste 0 -- -- 77
2017-11-10 23:00:00 5.9 10 Noroeste 13 Noroeste 0 -- -- 75
2017-11-10 22:00:00 6.3 9 Noroeste 13 Noroeste 0 -- -- 76
2017-11-10 21:00:00 5.3 8 Noroeste 10 Noroeste 0 -- -- 77
2017-11-10 20:00:00 7.2 8 Noroeste 15 Noroeste 0 -- -- 69
2017-11-10 19:00:00 6 9 Norte 12 Norte 0 -- -- 74
2017-11-10 18:00:00 7.3 8 Norte 14 Noroeste 0 -- -- 67
2017-11-10 17:00:00 10.8 11 Noroeste 14 Oeste 0 -- -- 50
2017-11-10 16:00:00 10.8 12 Noroeste 18 Noroeste 0 -- -- 50
2017-11-10 15:00:00 10.7 10 Noroeste 23 Noroeste 0 -- -- 50
2017-11-10 14:00:00 11.1 15 Noroeste 22 Oeste 0 -- -- 46
2017-11-10 13:00:00 10.4 13 Noroeste 19 Oeste 0 -- -- 44
2017-11-10 12:00:00 11.2 11 Noroeste 18 Oeste 0 -- -- 41
2017-11-10 11:00:00 10.4 4 Oeste 12 Noroeste 0 -- -- 41
2017-11-10 10:00:00 7.5 8 Oeste 14 Oeste 0 -- -- 52
2017-11-10 09:00:00 5.2 7 Noroeste 12 Noroeste 0 -- -- 58
2017-11-10 08:00:00 1.4 10 Norte 14 Nordeste 0 -- -- 73
2017-11-10 07:00:00 0.1 13 Nordeste 17 Nordeste 0 -- -- 78
2017-11-10 06:00:00 2.9 4 Norte 16 Norte 0 -- -- 65
2017-11-10 05:00:00 1.2 12 Norte 17 Norte 0 -- -- 73
2017-11-10 04:00:00 2.2 8 Noroeste 11 Norte 0 -- -- 69
2017-11-10 03:00:00 4 5 Norte 13 Norte 0 -- -- 61
2017-11-10 02:00:00 1.7 8 Norte 14 Noroeste 0 -- -- 71
2017-11-10 01:00:00 1.6 9 Norte 13 Norte 0 -- -- 71
2017-11-10 00:00:00 2.1 9 Norte 18 Norte 0 -- -- 70
2017-11-09 23:00:00 2.2 11 Norte 14 Norte 0 -- -- 69
2017-11-09 22:00:00 2.7 5 Noroeste 16 Norte 0 -- -- 68
2017-11-09 21:00:00 3.4 12 Norte 15 Norte 0 -- -- 67
2017-11-09 20:00:00 6.2 3 Oeste 21 Nordeste 0 -- -- 57
2017-11-09 19:00:00 7.1 9 Nordeste 20 Este 0 -- -- 53
2017-11-09 18:00:00 8.3 11 Este 18 Este 0 -- -- 56
2017-11-09 17:00:00 12.2 3 Norte 17 Oeste 0 -- -- 46
2017-11-09 16:00:00 11.6 10 Oeste 26 Oeste 0 -- -- 45
2017-11-09 15:00:00 12.3 20 Oeste 30 Noroeste 0 -- -- 42
2017-11-09 14:00:00 11.5 17 Oeste 26 Oeste 0 -- -- 47
2017-11-09 13:00:00 10.2 11 Noroeste 22 Oeste 0 -- -- 50
2017-11-09 12:00:00 9.2 10 Oeste 16 Oeste 0 -- -- 53
2017-11-09 11:00:00 7.2 10 Oeste 21 Oeste 0 -- -- 58
2017-11-09 10:00:00 5.7 4 Oeste 17 Noroeste 0 -- -- 56
2017-11-09 09:00:00 2.8 9 Noroeste 15 Norte 0 -- -- 65
2017-11-09 08:00:00 0.9 9 Norte 13 Norte 0 -- -- 74
2017-11-09 07:00:00 1.6 6 Norte 13 Noroeste 0 -- -- 71
2017-11-09 06:00:00 1.7 7 Noroeste 11 Norte 0 -- -- 70
2017-11-09 05:00:00 1.8 6 Noroeste 10 Noroeste 0 -- -- 70
2017-11-09 04:00:00 2.1 8 Noroeste 13 Oeste 0 -- -- 68
2017-11-09 03:00:00 1.9 8 Noroeste 12 Noroeste 0 -- -- 67
2017-11-09 02:00:00 1 8 Norte 12 Noroeste 0 -- -- 66
2017-11-09 01:00:00 0.8 10 Norte 17 Norte 0 -- -- 65
2017-11-09 00:00:00 0.7 9 Norte 17 Norte 0 -- -- 68
2017-11-08 23:00:00 0.6 12 Norte 19 Norte 0 -- -- 73
2017-11-08 22:00:00 1.6 11 Norte 17 Noroeste 0 -- -- 70
2017-11-08 21:00:00 5.2 12 Noroeste 22 Oeste 0 -- -- 63
2017-11-08 20:00:00 6.4 15 Noroeste 21 Oeste 0 -- -- 61
2017-11-08 19:00:00 7 10 Noroeste 15 Noroeste 0 -- -- 60
2017-11-08 18:00:00 8.2 13 Noroeste 21 Noroeste 0 -- -- 54
2017-11-08 17:00:00 10.2 14 Noroeste 19 Noroeste 0 -- -- 50
2017-11-08 16:00:00 10.6 11 Oeste 18 Oeste 0 -- -- 50
2017-11-08 15:00:00 11.8 8 Oeste 14 Oeste 0 -- -- 48
2017-11-08 14:00:00 10.3 8 Oeste 18 Oeste 0 -- -- 53
2017-11-08 13:00:00 9.3 10 Oeste 14 Oeste 0 -- -- 57
2017-11-08 12:00:00 8.4 8 Oeste 15 Oeste 0 -- -- 56
2017-11-08 11:00:00 7.7 12 Oeste 19 Oeste 0 -- -- 57
2017-11-08 10:00:00 6.9 3 Sudeste 10 Sudeste 0 -- -- 60
2017-11-08 09:00:00 3.6 0 Calma 9 Sudeste 0 -- -- 66
2017-11-08 08:00:00 1 8 Noroeste 11 Norte 0 -- -- 76
2017-11-08 07:00:00 -0.3 2 Sur 11 Norte 0 -- -- 83
2017-11-08 06:00:00 -0.3 3 Nordeste 10 Norte 0 -- -- 79
2017-11-08 05:00:00 0 7 Norte 10 Norte 0 -- -- 81
2017-11-08 04:00:00 0.1 7 Norte 15 Norte 0 -- -- 77
2017-11-08 03:00:00 0.4 9 Norte 12 Norte 0 -- -- 77
2017-11-08 02:00:00 0.4 10 Norte 12 Norte 0 -- -- 80
2017-11-08 01:00:00 1.4 5 Norte 11 Norte 0 -- -- 73
2017-11-08 00:00:00 0.7 8 Norte 10 Norte 0 -- -- 75
2017-11-07 23:00:00 1.8 4 Este 11 Este 0 -- -- 69
2017-11-07 22:00:00 2 8 Norte 13 Norte 0 -- -- 68
2017-11-07 21:00:00 2 8 Norte 12 Norte 0 -- -- 69
2017-11-07 20:00:00 2.7 8 Norte 12 Norte 0 -- -- 67
2017-11-07 19:00:00 3.4 8 Norte 11 Norte 0 -- -- 66
2017-11-07 18:00:00 7.7 7 Noroeste 13 Oeste 0 -- -- 49
2017-11-07 17:00:00 10.7 9 Oeste 18 Sudoeste 0 -- -- 39
2017-11-07 16:00:00 11.5 11 Sudoeste 19 Sudoeste 0 -- -- 37
2017-11-07 15:00:00 12.3 7 Oeste 17 Oeste 0 -- -- 32
2017-11-07 14:00:00 11.2 8 Oeste 22 Noroeste 0 -- -- 27
2017-11-07 13:00:00 9.4 17 Noroeste 28 Oeste 0 -- -- 29
2017-11-07 12:00:00 8.3 13 Noroeste 24 Noroeste 0 -- -- 30
2017-11-07 11:00:00 6.3 11 Noroeste 18 Oeste 0 -- -- 34
2017-11-07 10:00:00 4.7 10 Noroeste 15 Noroeste 0 -- -- 40
2017-11-07 09:00:00 2.4 5 Norte 17 Noroeste 0 -- -- 48
2017-11-07 08:00:00 0.6 10 Oeste 13 Oeste 0 -- -- 52
2017-11-07 07:00:00 -1.2 6 Noroeste 15 Norte 0 -- -- 56
2017-11-07 06:00:00 -1.1 7 Norte 17 Norte 0 -- -- 57
2017-11-07 05:00:00 -0.3 14 Norte 18 Norte 0 -- -- 51
2017-11-07 04:00:00 -1.4 10 Norte 15 Norte 0 -- -- 62
2017-11-07 03:00:00 -0.6 13 Norte 17 Norte 0 -- -- 55
2017-11-07 02:00:00 -1.1 13 Norte 17 Norte 0 -- -- 60
2017-11-07 01:00:00 0.8 7 Nordeste 17 Nordeste 0 -- -- 54
2017-11-07 00:00:00 0.2 10 Norte 13 Norte 0 -- -- 58
2017-11-06 23:00:00 2.4 5 Noroeste 15 Norte 0 -- -- 43
2017-11-06 22:00:00 2.5 11 Norte 18 Noroeste 0 -- -- 42
2017-11-06 21:00:00 4.3 11 Norte 19 Norte 0 -- -- 37
2017-11-06 20:00:00 6.3 10 Noroeste 37 Norte 0 -- -- 33
2017-11-06 19:00:00 6.9 18 Norte 33 Noroeste 0 -- -- 30
2017-11-06 18:00:00 7 10 Nordeste 32 Este 0 -- -- 31
2017-11-06 17:00:00 9.7 21 Este 32 Este 0 -- -- 28
2017-11-06 16:00:00 11.1 22 Este 36 Este 0 -- -- 27
2017-11-06 15:00:00 11.9 19 Norte 33 Norte 0 -- -- 25
2017-11-06 14:00:00 12.2 16 Norte 32 Noroeste 0 -- -- 27
2017-11-06 13:00:00 11.1 10 Noroeste 29 Oeste 0 -- -- 35
2017-11-06 12:00:00 10 13 Oeste 28 Oeste 0 -- -- 41
2017-11-06 11:00:00 8.6 13 Oeste 27 Oeste 0 -- -- 46
2017-11-06 10:00:00 6.8 15 Oeste 26 Noroeste 0 -- -- 53
2017-11-06 09:00:00 5 12 Noroeste 16 Noroeste 0 -- -- 64
2017-11-06 08:00:00 2.1 7 Norte 18 Norte 0 -- -- 73
2017-11-06 07:00:00 0.7 7 Norte 12 Norte 0 -- -- 84
2017-11-06 06:00:00 1.4 8 Noroeste 13 Norte 0 -- -- 83
2017-11-06 05:00:00 2.5 5 Este 20 Oeste 0 -- -- 82
2017-11-06 04:00:00 3.3 13 Noroeste 20 Oeste 0 -- -- 82
2017-11-06 03:00:00 3.8 13 Noroeste 19 Oeste 0 -- -- 81
2017-11-06 02:00:00 4 14 Noroeste 20 Noroeste 0 -- -- 81
2017-11-06 01:00:00 5 15 Noroeste 20 Noroeste 0 -- -- 78
2017-11-06 00:00:00 4.7 2 Nordeste 18 Noroeste 0 -- -- 78
2017-11-05 23:00:00 5.5 17 Noroeste 23 Noroeste 0 -- -- 76
2017-11-05 22:00:00 6 18 Noroeste 25 Noroeste 0 -- -- 73
2017-11-05 21:00:00 6.8 18 Noroeste 32 Oeste 0 -- -- 71
2017-11-05 20:00:00 7.7 18 Noroeste 27 Oeste 0 -- -- 67
2017-11-05 19:00:00 8.9 16 Noroeste 27 Oeste 0 -- -- 61
2017-11-05 18:00:00 10.1 18 Oeste 37 Oeste 0 -- -- 59
2017-11-05 17:00:00 13.9 19 Noroeste 38 Oeste 0 -- -- 44
2017-11-05 16:00:00 15.2 21 Noroeste 35 Oeste 0 -- -- 38
2017-11-05 15:00:00 15.4 17 Noroeste 32 Noroeste 0 -- -- 42
2017-11-05 14:00:00 15 18 Oeste 30 Oeste 0 -- -- 44
2017-11-05 13:00:00 14 15 Oeste 24 Oeste 0 -- -- 54
2017-11-05 12:00:00 12.4 14 Oeste 24 Oeste 0 -- -- 69
2017-11-05 11:00:00 11.4 10 Oeste 16 Oeste 0 -- -- 75
2017-11-05 10:00:00 10.4 4 Sudoeste 9 Sudoeste 0 -- -- 84
2017-11-05 09:00:00 8.6 5 Este 15 Oeste 0 -- -- 92
2017-11-05 08:00:00 7.1 6 Noroeste 13 Noroeste 0 -- -- 97
2017-11-05 07:00:00 7.6 13 Noroeste 17 Noroeste 0 -- -- 95
2017-11-05 06:00:00 7.6 10 Noroeste 16 Oeste 0 -- -- 97
2017-11-05 05:00:00 7.9 9 Noroeste 13 Noroeste 0 -- -- 100
2017-11-05 04:00:00 7.7 12 Noroeste 19 Noroeste 0.2 -- -- 99
2017-11-05 03:00:00 8.3 10 Noroeste 20 Noroeste 0 -- -- 98
2017-11-05 02:00:00 8.7 9 Noroeste 15 Noroeste 0 -- -- 99
2017-11-05 01:00:00 8.2 3 Oeste 9 Nordeste 0 -- -- 97
2017-11-05 00:00:00 9.7 3 Noroeste 10 Noroeste 0 -- -- 97
2017-11-04 23:00:00 10.1 9 Noroeste 13 Noroeste 0 -- -- 97
2017-11-04 22:00:00 10.3 9 Noroeste 25 Noroeste 1 -- -- 96
2017-11-04 21:00:00 9.9 0 Calma 9 Norte 0 -- -- 95
2017-11-04 20:00:00 10 2 Norte 8 Norte 0 -- -- 92
2017-11-04 19:00:00 10.5 8 Norte 15 Este 0 -- -- 90
2017-11-04 18:00:00 11.5 6 Este 23 Este 0 -- -- 88
2017-11-04 17:00:00 13 12 Este 18 Nordeste 0 -- -- 84
2017-11-04 16:00:00 13.3 8 Nordeste 19 Este 0 -- -- 81
2017-11-04 15:00:00 14.7 10 Este 17 Este 0 -- -- 80
2017-11-04 14:00:00 14.6 3 Noroeste 15 Noroeste 0 -- -- 92
2017-11-04 13:00:00 10.9 5 Este 19 Noroeste 3.6 -- -- 97
2017-11-04 12:00:00 13.5 3 Oeste 10 Oeste 0 -- -- 92
2017-11-04 11:00:00 10.8 7 Noroeste 14 Noroeste 0.6 -- -- 97
2017-11-04 10:00:00 10.7 6 Sudeste 14 Este 1 -- -- 96
2017-11-04 09:00:00 10.1 9 Norte 14 Noroeste 1.2 -- -- 96
2017-11-04 08:00:00 8.9 8 Sudeste 16 Este 0 -- -- 94
2017-11-04 07:00:00 10.4 7 Sudeste 17 Nordeste 0 -- -- 85
2017-11-04 06:00:00 10.3 2 Este 13 Nordeste 0 -- -- 85
2017-11-04 05:00:00 8.2 10 Norte 13 Norte 0 -- -- 93
2017-11-04 04:00:00 9.4 4 Sur 12 Nordeste 0 -- -- 93
2017-11-04 03:00:00 9 0 Calma 8 Norte 0 -- -- 94
2017-11-04 02:00:00 9.7 0 Calma 11 Nordeste 0 -- -- 92
2017-11-04 01:00:00 10 2 Norte 10 Norte 0 -- -- 91
2017-11-04 00:00:00 10.2 0 Calma 7 Norte 0 -- -- 90
2017-11-03 23:00:00 11 3 Noroeste 13 Norte 0 -- -- 88
2017-11-03 22:00:00 10.8 10 Norte 14 Norte 0 -- -- 89
2017-11-03 21:00:00 10.6 6 Norte 13 Norte 0 -- -- 88
2017-11-03 20:00:00 10.9 4 Norte 12 Norte 0 -- -- 87
2017-11-03 19:00:00 11.6 6 Norte 10 Norte 0 -- -- 85
2017-11-03 18:00:00 14.5 7 Noroeste 15 Noroeste 0 -- -- 78
2017-11-03 17:00:00 16.3 9 Noroeste 14 Oeste 0 -- -- 72
2017-11-03 16:00:00 20.6 4 Este 17 Sudeste 0 -- -- 50
2017-11-03 15:00:00 19 9 Sudeste 20 Sudeste 0 -- -- 57
2017-11-03 14:00:00 18.8 7 Sur 15 Sur 0 -- -- 57
2017-11-03 13:00:00 18.5 8 Sudeste 18 Sudeste 0 -- -- 54
2017-11-03 12:00:00 17.4 7 Sudeste 15 Este 0 -- -- 63
2017-11-03 11:00:00 15.7 7 Sudeste 15 Este 0 -- -- 63
2017-11-03 10:00:00 13.3 4 Sudoeste 18 Este 0 -- -- 72
2017-11-03 09:00:00 11.3 11 Este 17 Este 0 -- -- 77
2017-11-03 08:00:00 8.5 5 Este 15 Nordeste 0 -- -- 90
2017-11-03 07:00:00 8.7 0 Calma 16 Este 0 -- -- 93
2017-11-03 06:00:00 9.2 4 Este 19 Nordeste 0 -- -- 89
2017-11-03 05:00:00 10.9 17 Este 23 Nordeste 0 -- -- 84
2017-11-03 04:00:00 11.2 10 Nordeste 21 Nordeste 0 -- -- 85
2017-11-03 03:00:00 8.3 8 Nordeste 12 Nordeste 0 -- -- 95
2017-11-03 02:00:00 8.8 11 Norte 14 Norte 0 -- -- 95
2017-11-03 01:00:00 9.4 2 Nordeste 12 Norte 0 -- -- 95
2017-11-03 00:00:00 9.5 4 Norte 12 Norte 0 -- -- 93
2017-11-02 23:00:00 9.2 9 Norte 11 Norte 0 -- -- 93
2017-11-02 22:00:00 9.5 6 Norte 10 Norte 0 -- -- 92
2017-11-02 21:00:00 10.2 5 Norte 10 Norte 0 -- -- 92
2017-11-02 20:00:00 10.7 6 Norte 10 Norte 0 -- -- 88
2017-11-02 19:00:00 11.4 8 Norte 10 Norte 0 -- -- 86
2017-11-02 18:00:00 14.1 0 Calma 6 Este 0 -- -- 77
2017-11-02 17:00:00 15.4 5 Sudeste 7 Sudeste 0 -- -- 73
2017-11-02 16:00:00 16.1 7 Sur 11 Sur 0 -- -- 71
2017-11-02 15:00:00 16.9 5 Sur 10 Sudoeste 0 -- -- 68
2017-11-02 14:00:00 16.7 7 Sur 14 Sudeste 0 -- -- 65
2017-11-02 13:00:00 17.1 9 Este 15 Este 0 -- -- 63
2017-11-02 12:00:00 15.3 10 Este 16 Este 0 -- -- 71
2017-11-02 11:00:00 13.6 6 Este 14 Este 0 -- -- 76
2017-11-02 10:00:00 12.5 4 Sudeste 11 Este 0 -- -- 80
2017-11-02 09:00:00 10.3 2 Sudoeste 9 Este 0 -- -- 89
2017-11-02 08:00:00 8.3 4 Este 8 Este 0 -- -- 96
2017-11-02 07:00:00 8.1 4 Este 11 Nordeste 0 -- -- 97
2017-11-02 06:00:00 7.7 3 Norte 8 Norte 0 -- -- 96
2017-11-02 05:00:00 8.3 3 Nordeste 13 Norte 0 -- -- 96
2017-11-02 04:00:00 8.1 5 Norte 9 Norte 0 -- -- 95
2017-11-02 03:00:00 8.1 5 Norte 7 Norte 0 -- -- 94
2017-11-02 02:00:00 8.8 3 Norte 9 Norte 0 -- -- 95
2017-11-02 01:00:00 8.7 5 Norte 8 Norte 0 -- -- 95
2017-11-02 00:00:00 9 6 Norte 9 Norte 0 -- -- 94
2017-11-01 23:00:00 9.3 8 Norte 10 Norte 0 -- -- 93
2017-11-01 22:00:00 8.7 8 Norte 10 Norte 0 -- -- 92
2017-11-01 21:00:00 9.1 7 Norte 10 Norte 0 -- -- 91
2017-11-01 20:00:00 9.2 6 Norte 9 Norte 0 -- -- 90
2017-11-01 19:00:00 10.1 6 Norte 9 Norte 0 -- -- 87
2017-11-01 18:00:00 13.7 4 Sudeste 12 Sur 0 -- -- 76
2017-11-01 17:00:00 16.6 6 Sur 13 Sudeste 0 -- -- 65
2017-11-01 16:00:00 17.3 10 Sudeste 15 Sudeste 0 -- -- 62
2017-11-01 15:00:00 17.2 6 Sudeste 14 Sudeste 0 -- -- 62
2017-11-01 14:00:00 17.8 7 Sur 14 Sudeste 0 -- -- 61
2017-11-01 13:00:00 16.6 9 Sudeste 14 Sur 0 -- -- 63
2017-11-01 12:00:00 15.6 6 Sur 20 Este 0 -- -- 64
2017-11-01 11:00:00 14.1 6 Este 15 Sudeste 0 -- -- 71
2017-11-01 10:00:00 11.3 5 Este 9 Este 0 -- -- 81
2017-11-01 09:00:00 10 0 Calma 9 Este 0 -- -- 85
2017-11-01 08:00:00 6.7 0 Calma 8 Norte 0 -- -- 92
2017-11-01 07:00:00 5.8 5 Norte 8 Norte 0 -- -- 94
2017-11-01 06:00:00 5.7 3 Oeste 11 Norte 0 -- -- 95
2017-11-01 05:00:00 6.3 4 Norte 9 Norte 0 -- -- 92
2017-11-01 04:00:00 6.2 2 Noroeste 4 Noroeste 0 -- -- 92
2017-11-01 03:00:00 6.8 2 Este 9 Norte 0 -- -- 91
2017-11-01 02:00:00 6.2 5 Norte 11 Norte 0 -- -- 91
2017-11-01 01:00:00 5.9 8 Norte 12 Norte 0 -- -- 92
2017-11-01 00:00:00 6 9 Norte 12 Norte 0 -- -- 91
2017-10-31 23:00:00 6.3 8 Norte 10 Norte 0 -- -- 91
2017-10-31 22:00:00 6.8 5 Norte 8 Norte 0 -- -- 89
2017-10-31 21:00:00 7 4 Norte 10 Este 0 -- -- 88
2017-10-31 20:00:00 8.3 5 Este 8 Este 0 -- -- 86
2017-10-31 19:00:00 8.7 5 Norte 9 Norte 0 -- -- 85
2017-10-31 18:00:00 12.4 0 Calma 8 Oeste 0 -- -- 74
2017-10-31 17:00:00 14.6 7 Oeste 14 Oeste 0 -- -- 66
2017-10-31 16:00:00 15.7 9 Oeste 13 Oeste 0 -- -- 63
2017-10-31 15:00:00 15.1 5 Oeste 9 Oeste 0 -- -- 64
2017-10-31 14:00:00 14.6 8 Oeste 18 Sudeste 0 -- -- 66
2017-10-31 13:00:00 15.6 8 Sudeste 17 Sudeste 0 -- -- 61
2017-10-31 12:00:00 14.4 9 Sudeste 15 Sudeste 0 -- -- 64
2017-10-31 11:00:00 12.2 9 Sudeste 15 Sudeste 0 -- -- 72
2017-10-31 10:00:00 11.1 5 Sudeste 9 Sur 0 -- -- 77
2017-10-31 09:00:00 9.5 5 Este 8 Este 0 -- -- 86
2017-10-31 08:00:00 6.3 3 Norte 8 Norte 0 -- -- 94
2017-10-31 07:00:00 7 3 Este 6 Noroeste 0 -- -- 93
2017-10-31 06:00:00 8.3 3 Nordeste 7 Este 0 -- -- 91
2017-10-31 05:00:00 9.6 6 Este 8 Este 0 -- -- 87
2017-10-31 04:00:00 10 4 Este 9 Este 0 -- -- 88
2017-10-31 03:00:00 10.2 3 Este 8 Este 0 -- -- 87
2017-10-31 02:00:00 10.1 7 Este 10 Este 0 -- -- 86
2017-10-31 01:00:00 10.1 7 Este 12 Sudeste 0 -- -- 84
2017-10-31 00:00:00 10.1 5 Este 8 Sudeste 0 -- -- 82
2017-10-30 23:00:00 8.3 3 Sudeste 6 Nordeste 0 -- -- 88
2017-10-30 22:00:00 7.7 3 Nordeste 9 Norte 0 -- -- 88
2017-10-30 21:00:00 7.9 4 Norte 8 Norte 0 -- -- 86
2017-10-30 20:00:00 8.9 3 Nordeste 8 Este 0 -- -- 82
2017-10-30 19:00:00 11.6 6 Este 11 Sudeste 0 -- -- 71
2017-10-30 18:00:00 13.5 7 Sudeste 15 Sudeste 0 -- -- 65
2017-10-30 17:00:00 16.7 8 Sur 17 Sudoeste 0 -- -- 52
2017-10-30 16:00:00 18.2 9 Sur 17 Sudoeste 0 -- -- 49
2017-10-30 15:00:00 19.3 5 Sudeste 15 Sur 0 -- -- 50
2017-10-30 14:00:00 18 8 Sur 19 Sudeste 0 -- -- 55
2017-10-30 13:00:00 17.8 10 Sudeste 17 Este 0 -- -- 57
2017-10-30 12:00:00 15.6 8 Sudeste 13 Este 0 -- -- 60
2017-10-30 11:00:00 13.6 6 Sudeste 10 Este 0 -- -- 62
2017-10-30 10:00:00 10.7 6 Sudeste 9 Sudeste 0 -- -- 68
2017-10-30 09:00:00 8.7 4 Sudeste 9 Sudeste 0 -- -- 76
2017-10-30 08:00:00 5.5 8 Norte 13 Norte 0 -- -- 85
2017-10-30 07:00:00 4.4 3 Nordeste 10 Norte 0 -- -- 88
2017-10-30 06:00:00 4.9 4 Norte 11 Norte 0 -- -- 87
2017-10-30 05:00:00 5.2 2 Nordeste 9 Norte 0 -- -- 84
2017-10-30 04:00:00 5.6 5 Norte 9 Norte 0 -- -- 82
2017-10-30 03:00:00 7 0 Calma 9 Norte 0 -- -- 77
2017-10-30 02:00:00 7.5 4 Norte 10 Norte 0 -- -- 76
2017-10-30 01:00:00 7.9 4 Norte 13 Noroeste 0 -- -- 74
2017-10-30 00:00:00 8.5 10 Norte 15 Norte 0 -- -- 74
2017-10-29 23:00:00 7.8 10 Norte 13 Norte 0 -- -- 77
2017-10-29 22:00:00 8.4 9 Norte 12 Norte 0 -- -- 74
2017-10-29 21:00:00 8.9 7 Norte 12 Noroeste 0 -- -- 71
2017-10-29 20:00:00 8.9 9 Norte 12 Norte 0 -- -- 72
2017-10-29 19:00:00 10.4 8 Norte 10 Norte 0 -- -- 66
2017-10-29 18:00:00 14.4 3 Noroeste 15 Noroeste 0 -- -- 52
2017-10-29 17:00:00 16.6 10 Noroeste 25 Noroeste 0 -- -- 47
2017-10-29 16:00:00 16.5 15 Noroeste 21 Oeste 0 -- -- 49
2017-10-29 15:00:00 17.4 11 Noroeste 19 Oeste 0 -- -- 47
2017-10-29 14:00:00 17.4 10 Oeste 19 Noroeste 0 -- -- 51
2017-10-29 13:00:00 15.8 13 Noroeste 19 Noroeste 0 -- -- 60
2017-10-29 12:00:00 14.9 9 Oeste 17 Oeste 0 -- -- 63
2017-10-29 11:00:00 13 8 Oeste 13 Oeste 0 -- -- 68
2017-10-29 10:00:00 10.5 4 Sudeste 10 Este 0 -- -- 74
2017-10-29 09:00:00 8.6 3 Sudeste 6 Este 0 -- -- 74
2017-10-29 08:00:00 5.7 0 Calma 10 Norte 0 -- -- 70
2017-10-29 07:00:00 4.3 9 Norte 13 Norte 0 -- -- 71
2017-10-29 06:00:00 5.7 9 Noroeste 18 Norte 0 -- -- 73
2017-10-29 05:00:00 6.5 5 Norte 14 Norte 0 -- -- 86
2017-10-29 04:00:00 6.5 3 Norte 10 Noroeste 0 -- -- 88
2017-10-29 03:00:00 6.5 4 Norte 9 Norte 0 -- -- 88
2017-10-29 02:00:00 7.6 6 Norte 12 Norte 0 -- -- 86
2017-10-29 01:00:00 8.7 5 Norte 13 Norte 0 -- -- 81
2017-10-29 00:00:00 8.1 10 Norte 13 Norte 0 -- -- 84
2017-10-28 23:00:00 8.8 7 Norte 12 Norte 0 -- -- 81
2017-10-28 22:00:00 9.3 4 Norte 12 Norte 0 -- -- 82
2017-10-28 21:00:00 10.1 9 Norte 12 Norte 0 -- -- 81
2017-10-28 20:00:00 11.7 7 Norte 10 Noroeste 0 -- -- 75
2017-10-28 19:00:00 16.3 3 Oeste 12 Oeste 0 -- -- 60
2017-10-28 18:00:00 18.5 9 Noroeste 18 Oeste 0 -- -- 53
2017-10-28 17:00:00 18.7 13 Noroeste 21 Noroeste 0 -- -- 51
2017-10-28 16:00:00 19.4 11 Noroeste 20 Oeste 0 -- -- 48
2017-10-28 15:00:00 18.9 13 Noroeste 22 Oeste 0 -- -- 53
2017-10-28 14:00:00 18.6 13 Noroeste 18 Oeste 0 -- -- 46
2017-10-28 13:00:00 18.3 9 Oeste 15 Oeste 0 -- -- 45
2017-10-28 12:00:00 16.6 4 Sur 9 Sudeste 0 -- -- 49
2017-10-28 11:00:00 15.7 5 Sudeste 8 Este 0 -- -- 54
2017-10-28 10:00:00 12.3 6 Este 9 Norte 0 -- -- 65
2017-10-28 09:00:00 9.5 4 Norte 15 Norte 0 -- -- 66
2017-10-28 08:00:00 7.6 13 Norte 17 Norte 0 -- -- 75
2017-10-28 07:00:00 8.4 13 Norte 17 Norte 0 -- -- 73
2017-10-28 06:00:00 8.2 11 Norte 13 Norte 0 -- -- 77
2017-10-28 05:00:00 9.8 9 Norte 18 Nordeste 0 -- -- 70
2017-10-28 04:00:00 9 10 Norte 17 Norte 0 -- -- 75
2017-10-28 03:00:00 9.5 10 Norte 16 Norte 0 -- -- 73
2017-10-28 02:00:00 10 11 Norte 15 Norte 0 -- -- 71
2017-10-28 01:00:00 10.1 10 Nordeste 17 Nordeste 0 -- -- 72
2017-10-28 00:00:00 14.5 13 Nordeste 21 Este 0 -- -- 56
2017-10-27 23:00:00 15.3 17 Nordeste 22 Nordeste 0 -- -- 52
2017-10-27 22:00:00 14.4 10 Este 14 Este 0 -- -- 67
2017-10-27 21:00:00 13.3 5 Nordeste 12 Nordeste 0 -- -- 78
2017-10-27 20:00:00 14 4 Nordeste 12 Norte 0 -- -- 75
2017-10-27 19:00:00 18.7 3 Oeste 10 Sudoeste 0 -- -- 61
2017-10-27 18:00:00 21.9 7 Oeste 13 Oeste 0 -- -- 48
2017-10-27 17:00:00 22.8 8 Oeste 14 Oeste 0 -- -- 43
2017-10-27 16:00:00 21.9 9 Oeste 16 Oeste 0 -- -- 48
2017-10-27 15:00:00 21.2 10 Noroeste 18 Noroeste 0 -- -- 50
2017-10-27 14:00:00 19.8 14 Noroeste 19 Noroeste 0 -- -- 47
2017-10-27 13:00:00 19.2 10 Noroeste 16 Noroeste 0 -- -- 48
2017-10-27 12:00:00 18.6 9 Oeste 14 Oeste 0 -- -- 56
2017-10-27 11:00:00 16.8 5 Oeste 8 Oeste 0 -- -- 64
2017-10-27 10:00:00 14.2 0 Calma 12 Norte 0 -- -- 80
2017-10-27 09:00:00 10.2 9 Noroeste 13 Norte 0 -- -- 86
2017-10-27 08:00:00 9.4 8 Norte 12 Norte 0 -- -- 86
2017-10-27 07:00:00 9.6 8 Norte 13 Norte 0 -- -- 89
2017-10-27 06:00:00 9.9 8 Norte 11 Norte 0 -- -- 90
2017-10-27 05:00:00 9.9 8 Norte 11 Norte 0 -- -- 88
2017-10-27 04:00:00 10.6 8 Noroeste 12 Noroeste 0 -- -- 88
2017-10-27 03:00:00 10.7 10 Norte 12 Norte 0 -- -- 87
2017-10-27 02:00:00 11.3 8 Norte 12 Norte 0 -- -- 84
2017-10-27 01:00:00 12 11 Norte 15 Norte 0 -- -- 82
2017-10-27 00:00:00 11.8 8 Norte 11 Norte 0 -- -- 80
2017-10-26 23:00:00 12.4 8 Norte 12 Norte 0 -- -- 78
2017-10-26 22:00:00 13.1 8 Norte 12 Norte 0 -- -- 77
2017-10-26 21:00:00 13.9 2 Norte 8 Norte 0 -- -- 75
2017-10-26 20:00:00 16.1 6 Noroeste 12 Noroeste 0 -- -- 68
2017-10-26 19:00:00 20.3 10 Noroeste 15 Noroeste 0 -- -- 55
2017-10-26 18:00:00 22.9 11 Noroeste 21 Noroeste 0 -- -- 49
2017-10-26 17:00:00 24.1 12 Noroeste 18 Noroeste 0 -- -- 44
2017-10-26 16:00:00 24.5 9 Noroeste 17 Oeste 0 -- -- 40
2017-10-26 15:00:00 24.2 10 Oeste 20 Noroeste 0 -- -- 40
2017-10-26 14:00:00 23.1 10 Noroeste 18 Noroeste 0 -- -- 41
2017-10-26 13:00:00 21.8 10 Oeste 15 Oeste 0 -- -- 47
2017-10-26 12:00:00 20.1 5 Noroeste 10 Oeste 0 -- -- 56
2017-10-26 11:00:00 18.6 4 Sudoeste 6 Sudoeste 0 -- -- 65
2017-10-26 10:00:00 15.6 0 Calma 10 Norte 0 -- -- 75
2017-10-26 09:00:00 11.3 8 Norte 13 Norte 0 -- -- 84
2017-10-26 08:00:00 10.6 9 Norte 14 Norte 0 -- -- 87
2017-10-26 07:00:00 10.4 9 Norte 13 Noroeste 0 -- -- 89
2017-10-26 06:00:00 10.6 10 Norte 12 Norte 0 -- -- 88
2017-10-26 05:00:00 11.2 8 Noroeste 12 Norte 0 -- -- 87
2017-10-26 04:00:00 11.1 7 Norte 12 Noroeste 0 -- -- 86
2017-10-26 03:00:00 11.5 7 Norte 14 Norte 0 -- -- 85
2017-10-26 02:00:00 11.2 9 Norte 12 Norte 0 -- -- 88
2017-10-26 01:00:00 11.8 9 Norte 13 Norte 0 -- -- 86
2017-10-26 00:00:00 12 7 Norte 10 Norte 0 -- -- 85
2017-10-25 23:00:00 12.7 4 Norte 11 Norte 0 -- -- 83
2017-10-25 22:00:00 13.1 9 Norte 12 Norte 0 -- -- 83
2017-10-25 21:00:00 13.6 7 Norte 11 Norte 0 -- -- 81
2017-10-25 20:00:00 14.7 9 Norte 12 Norte 0 -- -- 78
2017-10-25 19:00:00 20.4 4 Oeste 10 Oeste 0 -- -- 57
2017-10-25 18:00:00 23.9 7 Oeste 11 Noroeste 0 -- -- 48
2017-10-25 17:00:00 25.6 5 Oeste 12 Oeste 0 -- -- 42
2017-10-25 16:00:00 26.6 5 Sudeste 12 Sudeste 0 -- -- 41
2017-10-25 15:00:00 25.6 4 Sudeste 10 Sur 0 -- -- 41
2017-10-25 14:00:00 23.7 3 Oeste 11 Este 0 -- -- 43
2017-10-25 13:00:00 22.3 5 Sudeste 10 Este 0 -- -- 47
2017-10-25 12:00:00 19.7 5 Sur 10 Sudeste 0 -- -- 52
2017-10-25 11:00:00 17.2 6 Sudeste 9 Sudeste 0 -- -- 62
2017-10-25 10:00:00 15.1 0 Calma 10 Norte 0 -- -- 69
2017-10-25 09:00:00 10.6 5 Norte 13 Norte 0 -- -- 81
2017-10-25 08:00:00 9.5 10 Norte 13 Norte 0 -- -- 86
2017-10-25 07:00:00 10.2 9 Norte 13 Norte 0 -- -- 83
2017-10-25 06:00:00 10.1 11 Norte 13 Norte 0 -- -- 84
2017-10-25 05:00:00 9.8 8 Norte 12 Norte 0 -- -- 85
2017-10-25 04:00:00 9.9 8 Norte 12 Norte 0 -- -- 84
2017-10-25 03:00:00 9.7 9 Norte 13 Norte 0 -- -- 85
2017-10-25 02:00:00 9.9 8 Norte 11 Norte 0 -- -- 84
2017-10-25 01:00:00 10.6 9 Norte 12 Norte 0 -- -- 82
2017-10-25 00:00:00 10.8 8 Norte 12 Norte 0 -- -- 82